Station Historical Data
Daily Summary for February 3, 2017 Units:  Both    English   Metric
« Previous Day
Next Day »
Daily Weekly Monthly Yearly Custom
  High: Low: Average:
Temperature: 21.9 °F /  -5.6 °C 14.6 °F /  -9.7 °C 17.8 °F /  -7.9 °C
Dew Point: 9.2 °F /  -12.7 °C 6.1 °F /  -14.4 °C 7.8 °F /  -13.4 °C
Humidity: 74% 53% 65%
Wind Speed: 17.0mph /  27.4km/h - 6.8mph /  10.9km/h
Wind Gust: 19.0mph /  30.6km/h - -
Wind- - West
Pressure: 30.35 in /  1027.7 hPa 30.21 in /  1022.9 hPa -
Precipitation: 0.00 in /  0 mm    
Historical Graphs
 
 
Tabular Data for February 3, 2017
Time Temperature Dew Point Pressure Wind Wind Speed Wind Gust Humidity Rainfall Rate (Hourly)
00:04 18.8 °F /  -7.3 °C 8.6 °F /  -13 °C 30.22in /  1023.2hPa West 3.0mph /  4.8km/h 10.0mph /  16.1km/h 64% 0.00in /  0mm
00:09 18.8 °F /  -7.3 °C 9.0 °F /  -12.8 °C 30.22in /  1023.2hPa West 6.0mph /  9.7km/h 12.0mph /  19.3km/h 65% 0.00in /  0mm
00:14 18.7 °F /  -7.4 °C 8.9 °F /  -12.8 °C 30.22in /  1023.2hPa West 6.0mph /  9.7km/h 13.0mph /  20.9km/h 65% 0.00in /  0mm
00:19 18.7 °F /  -7.4 °C 8.9 °F /  -12.8 °C 30.22in /  1023.2hPa West 7.0mph /  11.3km/h 13.0mph /  20.9km/h 65% 0.00in /  0mm
00:24 18.5 °F /  -7.5 °C 9.0 °F /  -12.8 °C 30.22in /  1023.2hPa WSW 5.0mph /  8km/h 12.0mph /  19.3km/h 66% 0.00in /  0mm
00:29 18.5 °F /  -7.5 °C 9.0 °F /  -12.8 °C 30.22in /  1023.2hPa WNW 5.0mph /  8km/h 13.0mph /  20.9km/h 66% 0.00in /  0mm
00:34 18.3 °F /  -7.6 °C 8.8 °F /  -12.9 °C 30.23in /  1023.6hPa West 9.0mph /  14.5km/h 17.0mph /  27.4km/h 66% 0.00in /  0mm
00:39 18.0 °F /  -7.8 °C 8.5 °F /  -13.1 °C 30.22in /  1023.2hPa WNW 7.0mph /  11.3km/h 14.0mph /  22.5km/h 66% 0.00in /  0mm
00:44 17.9 °F /  -7.8 °C 8.5 °F /  -13.1 °C 30.22in /  1023.2hPa West 7.0mph /  11.3km/h 14.0mph /  22.5km/h 66% 0.00in /  0mm
00:49 17.6 °F /  -8 °C 8.5 °F /  -13.1 °C 30.22in /  1023.2hPa West 7.0mph /  11.3km/h 14.0mph /  22.5km/h 67% 0.00in /  0mm
00:54 17.4 °F /  -8.1 °C 8.3 °F /  -13.2 °C 30.22in /  1023.2hPa WNW 6.0mph /  9.7km/h 13.0mph /  20.9km/h 67% 0.00in /  0mm
00:59 17.2 °F /  -8.2 °C 8.4 °F /  -13.1 °C 30.22in /  1023.2hPa West 6.0mph /  9.7km/h 16.0mph /  25.7km/h 68% 0.00in /  0mm
01:04 17.1 °F /  -8.3 °C 8.3 °F /  -13.2 °C 30.22in /  1023.2hPa WNW 7.0mph /  11.3km/h 10.0mph /  16.1km/h 68% 0.00in /  0mm
01:09 17.0 °F /  -8.3 °C 8.3 °F /  -13.2 °C 30.22in /  1023.2hPa WNW 5.0mph /  8km/h 10.0mph /  16.1km/h 68% 0.00in /  0mm
01:14 16.9 °F /  -8.4 °C 8.2 °F /  -13.2 °C 30.22in /  1023.2hPa West 4.0mph /  6.4km/h 10.0mph /  16.1km/h 68% 0.00in /  0mm
01:19 16.7 °F /  -8.5 °C 8.3 °F /  -13.2 °C 30.22in /  1023.2hPa West 4.0mph /  6.4km/h 10.0mph /  16.1km/h 69% 0.00in /  0mm
01:24 16.7 °F /  -8.5 °C 8.3 °F /  -13.2 °C 30.22in /  1023.2hPa West 5.0mph /  8km/h 11.0mph /  17.7km/h 69% 0.00in /  0mm
01:29 16.7 °F /  -8.5 °C 8.3 °F /  -13.2 °C 30.22in /  1023.2hPa West 5.0mph /  8km/h 11.0mph /  17.7km/h 69% 0.00in /  0mm
01:34 16.6 °F /  -8.6 °C 8.2 °F /  -13.2 °C 30.22in /  1023.2hPa West 5.0mph /  8km/h 9.0mph /  14.5km/h 69% 0.00in /  0mm
01:39 16.5 °F /  -8.6 °C 8.1 °F /  -13.3 °C 30.22in /  1023.2hPa WNW 5.0mph /  8km/h 10.0mph /  16.1km/h 69% 0.00in /  0mm
01:44 16.5 °F /  -8.6 °C 8.1 °F /  -13.3 °C 30.22in /  1023.2hPa WNW 6.0mph /  9.7km/h 8.0mph /  12.9km/h 69% 0.00in /  0mm
01:49 16.4 °F /  -8.7 °C 8.3 °F /  -13.2 °C 30.22in /  1023.2hPa West 5.0mph /  8km/h 13.0mph /  20.9km/h 70% 0.00in /  0mm
01:54 16.4 °F /  -8.7 °C 8.3 °F /  -13.2 °C 30.22in /  1023.2hPa West 6.0mph /  9.7km/h 13.0mph /  20.9km/h 70% 0.00in /  0mm
01:59 16.2 °F /  -8.8 °C 8.1 °F /  -13.3 °C 30.22in /  1023.2hPa West 3.0mph /  4.8km/h 15.0mph /  24.1km/h 70% 0.00in /  0mm
02:04 16.1 °F /  -8.8 °C 8.3 °F /  -13.2 °C 30.22in /  1023.2hPa West 4.0mph /  6.4km/h 11.0mph /  17.7km/h 71% 0.00in /  0mm
02:09 16.0 °F /  -8.9 °C 8.3 °F /  -13.2 °C 30.22in /  1023.2hPa West 5.0mph /  8km/h 10.0mph /  16.1km/h 71% 0.00in /  0mm
02:14 16.0 °F /  -8.9 °C 8.3 °F /  -13.2 °C 30.22in /  1023.2hPa WNW 10.0mph /  16.1km/h 13.0mph /  20.9km/h 71% 0.00in /  0mm
02:19 16.0 °F /  -8.9 °C 8.6 °F /  -13 °C 30.23in /  1023.6hPa West 7.0mph /  11.3km/h 13.0mph /  20.9km/h 72% 0.00in /  0mm
02:24 16.1 °F /  -8.8 °C 8.7 °F /  -12.9 °C 30.23in /  1023.6hPa West 6.0mph /  9.7km/h 13.0mph /  20.9km/h 72% 0.00in /  0mm
02:29 16.1 °F /  -8.8 °C 8.7 °F /  -12.9 °C 30.23in /  1023.6hPa West 7.0mph /  11.3km/h 17.0mph /  27.4km/h 72% 0.00in /  0mm
02:34 16.0 °F /  -8.9 °C 8.6 °F /  -13 °C 30.23in /  1023.6hPa West 7.0mph /  11.3km/h 17.0mph /  27.4km/h 72% 0.00in /  0mm
02:39 16.1 °F /  -8.8 °C 8.7 °F /  -12.9 °C 30.23in /  1023.6hPa West 6.0mph /  9.7km/h 12.0mph /  19.3km/h 72% 0.00in /  0mm
02:44 16.1 °F /  -8.8 °C 8.7 °F /  -12.9 °C 30.23in /  1023.6hPa West 6.0mph /  9.7km/h 13.0mph /  20.9km/h 72% 0.00in /  0mm
02:49 16.1 °F /  -8.8 °C 9.0 °F /  -12.8 °C 30.23in /  1023.6hPa West 8.0mph /  12.9km/h 16.0mph /  25.7km/h 73% 0.00in /  0mm
02:54 16.2 °F /  -8.8 °C 9.1 °F /  -12.7 °C 30.24in /  1023.9hPa NW 3.0mph /  4.8km/h 13.0mph /  20.9km/h 73% 0.00in /  0mm
02:59 16.3 °F /  -8.7 °C 8.9 °F /  -12.8 °C 30.24in /  1023.9hPa West 7.0mph /  11.3km/h 14.0mph /  22.5km/h 72% 0.00in /  0mm
03:04 16.4 °F /  -8.7 °C 8.9 °F /  -12.8 °C 30.24in /  1023.9hPa West 6.0mph /  9.7km/h 16.0mph /  25.7km/h 72% 0.00in /  0mm
03:09 16.4 °F /  -8.7 °C 8.9 °F /  -12.8 °C 30.24in /  1023.9hPa West 8.0mph /  12.9km/h 14.0mph /  22.5km/h 72% 0.00in /  0mm
03:14 16.2 °F /  -8.8 °C 8.4 °F /  -13.1 °C 30.24in /  1023.9hPa WNW 14.0mph /  22.5km/h 19.0mph /  30.6km/h 71% 0.00in /  0mm
03:19 16.2 °F /  -8.8 °C 8.8 °F /  -12.9 °C 30.24in /  1023.9hPa WSW 6.0mph /  9.7km/h 16.0mph /  25.7km/h 72% 0.00in /  0mm
03:24 16.1 °F /  -8.8 °C 8.7 °F /  -12.9 °C 30.24in /  1023.9hPa West 9.0mph /  14.5km/h 18.0mph /  29km/h 72% 0.00in /  0mm
03:29 16.0 °F /  -8.9 °C 8.6 °F /  -13 °C 30.23in /  1023.6hPa West 8.0mph /  12.9km/h 18.0mph /  29km/h 72% 0.00in /  0mm
03:34 15.9 °F /  -8.9 °C 8.5 °F /  -13.1 °C 30.23in /  1023.6hPa West 7.0mph /  11.3km/h 15.0mph /  24.1km/h 72% 0.00in /  0mm
03:39 15.7 °F /  -9.1 °C 8.3 °F /  -13.2 °C 30.23in /  1023.6hPa West 6.0mph /  9.7km/h 14.0mph /  22.5km/h 72% 0.00in /  0mm
03:44 15.4 °F /  -9.2 °C 8.0 °F /  -13.3 °C 30.23in /  1023.6hPa West 7.0mph /  11.3km/h 14.0mph /  22.5km/h 72% 0.00in /  0mm
03:49 15.4 °F /  -9.2 °C 8.0 °F /  -13.3 °C 30.23in /  1023.6hPa West 7.0mph /  11.3km/h 14.0mph /  22.5km/h 72% 0.00in /  0mm
03:54 15.2 °F /  -9.3 °C 7.8 °F /  -13.4 °C 30.23in /  1023.6hPa WSW 6.0mph /  9.7km/h 13.0mph /  20.9km/h 72% 0.00in /  0mm
03:59 15.1 °F /  -9.4 °C 8.0 °F /  -13.3 °C 30.23in /  1023.6hPa NNW 2.0mph /  3.2km/h 11.0mph /  17.7km/h 73% 0.00in /  0mm
04:04 15.1 °F /  -9.4 °C 8.0 °F /  -13.3 °C 30.23in /  1023.6hPa WSW 3.0mph /  4.8km/h 12.0mph /  19.3km/h 73% 0.00in /  0mm
04:09 14.9 °F /  -9.5 °C 7.8 °F /  -13.4 °C 30.23in /  1023.6hPa West 8.0mph /  12.9km/h 9.0mph /  14.5km/h 73% 0.00in /  0mm
04:14 14.9 °F /  -9.5 °C 7.8 °F /  -13.4 °C 30.23in /  1023.6hPa WNW 8.0mph /  12.9km/h 10.0mph /  16.1km/h 73% 0.00in /  0mm
04:19 14.9 °F /  -9.5 °C 7.8 °F /  -13.4 °C 30.23in /  1023.6hPa WSW 5.0mph /  8km/h 10.0mph /  16.1km/h 73% 0.00in /  0mm
04:24 14.8 °F /  -9.6 °C 7.7 °F /  -13.5 °C 30.23in /  1023.6hPa WNW 7.0mph /  11.3km/h 11.0mph /  17.7km/h 73% 0.00in /  0mm
04:29 14.7 °F /  -9.6 °C 7.9 °F /  -13.4 °C 30.23in /  1023.6hPa West 6.0mph /  9.7km/h 12.0mph /  19.3km/h 74% 0.00in /  0mm
04:34 14.6 °F /  -9.7 °C 7.5 °F /  -13.6 °C 30.23in /  1023.6hPa West 6.0mph /  9.7km/h 12.0mph /  19.3km/h 73% 0.00in /  0mm
04:39 14.6 °F /  -9.7 °C 7.8 °F /  -13.4 °C 30.24in /  1023.9hPa West 6.0mph /  9.7km/h 12.0mph /  19.3km/h 74% 0.00in /  0mm
04:44 14.7 °F /  -9.6 °C 7.9 °F /  -13.4 °C 30.24in /  1023.9hPa West 6.0mph /  9.7km/h 16.0mph /  25.7km/h 74% 0.00in /  0mm
04:49 14.9 °F /  -9.5 °C 8.1 °F /  -13.3 °C 30.23in /  1023.6hPa West 6.0mph /  9.7km/h 16.0mph /  25.7km/h 74% 0.00in /  0mm
04:54 15.2 °F /  -9.3 °C 8.1 °F /  -13.3 °C 30.24in /  1023.9hPa West 9.0mph /  14.5km/h 15.0mph /  24.1km/h 73% 0.00in /  0mm
04:59 15.4 °F /  -9.2 °C 8.3 °F /  -13.2 °C 30.23in /  1023.6hPa West 7.0mph /  11.3km/h 15.0mph /  24.1km/h 73% 0.00in /  0mm
05:04 15.5 °F /  -9.2 °C 8.1 °F /  -13.3 °C 30.23in /  1023.6hPa West 10.0mph /  16.1km/h 14.0mph /  22.5km/h 72% 0.00in /  0mm
05:09 15.7 °F /  -9.1 °C 8.3 °F /  -13.2 °C 30.23in /  1023.6hPa WNW 7.0mph /  11.3km/h 14.0mph /  22.5km/h 72% 0.00in /  0mm
05:14 15.7 °F /  -9.1 °C 8.3 °F /  -13.2 °C 30.23in /  1023.6hPa WNW 4.0mph /  6.4km/h 13.0mph /  20.9km/h 72% 0.00in /  0mm
05:19 15.8 °F /  -9 °C 8.4 °F /  -13.1 °C 30.23in /  1023.6hPa West 7.0mph /  11.3km/h 14.0mph /  22.5km/h 72% 0.00in /  0mm
05:24 15.9 °F /  -8.9 °C 8.2 °F /  -13.2 °C 30.23in /  1023.6hPa NW 7.0mph /  11.3km/h 14.0mph /  22.5km/h 71% 0.00in /  0mm
05:29 15.9 °F /  -8.9 °C 8.2 °F /  -13.2 °C 30.23in /  1023.6hPa West 4.0mph /  6.4km/h 15.0mph /  24.1km/h 71% 0.00in /  0mm
05:34 15.9 °F /  -8.9 °C 8.2 °F /  -13.2 °C 30.23in /  1023.6hPa WNW 8.0mph /  12.9km/h 16.0mph /  25.7km/h 71% 0.00in /  0mm
05:39 15.9 °F /  -8.9 °C 8.2 °F /  -13.2 °C 30.23in /  1023.6hPa West 8.0mph /  12.9km/h 16.0mph /  25.7km/h 71% 0.00in /  0mm
05:44 15.9 °F /  -8.9 °C 8.2 °F /  -13.2 °C 30.23in /  1023.6hPa WNW 7.0mph /  11.3km/h 15.0mph /  24.1km/h 71% 0.00in /  0mm
05:49 15.9 °F /  -8.9 °C 8.2 °F /  -13.2 °C 30.23in /  1023.6hPa WNW 7.0mph /  11.3km/h 12.0mph /  19.3km/h 71% 0.00in /  0mm
05:54 16.0 °F /  -8.9 °C 8.3 °F /  -13.2 °C 30.24in /  1023.9hPa WNW 7.0mph /  11.3km/h 14.0mph /  22.5km/h 71% 0.00in /  0mm
05:59 16.0 °F /  -8.9 °C 8.3 °F /  -13.2 °C 30.24in /  1023.9hPa West 7.0mph /  11.3km/h 14.0mph /  22.5km/h 71% 0.00in /  0mm
06:04 16.0 °F /  -8.9 °C 7.9 °F /  -13.4 °C 30.24in /  1023.9hPa NW 5.0mph /  8km/h 13.0mph /  20.9km/h 70% 0.00in /  0mm
06:09 16.2 °F /  -8.8 °C 7.8 °F /  -13.4 °C 30.24in /  1023.9hPa NW 5.0mph /  8km/h 15.0mph /  24.1km/h 69% 0.00in /  0mm
06:14 16.2 °F /  -8.8 °C 7.8 °F /  -13.4 °C 30.24in /  1023.9hPa West 7.0mph /  11.3km/h 14.0mph /  22.5km/h 69% 0.00in /  0mm
06:19 16.2 °F /  -8.8 °C 7.8 °F /  -13.4 °C 30.24in /  1023.9hPa West 7.0mph /  11.3km/h 10.0mph /  16.1km/h 69% 0.00in /  0mm
06:24 16.2 °F /  -8.8 °C 7.8 °F /  -13.4 °C 30.24in /  1023.9hPa NW 5.0mph /  8km/h 16.0mph /  25.7km/h 69% 0.00in /  0mm
06:29 16.2 °F /  -8.8 °C 7.8 °F /  -13.4 °C 30.24in /  1023.9hPa WNW 9.0mph /  14.5km/h 15.0mph /  24.1km/h 69% 0.00in /  0mm
06:34 16.2 °F /  -8.8 °C 7.8 °F /  -13.4 °C 30.24in /  1023.9hPa WSW 6.0mph /  9.7km/h 17.0mph /  27.4km/h 69% 0.00in /  0mm
06:39 16.2 °F /  -8.8 °C 7.5 °F /  -13.6 °C 30.24in /  1023.9hPa West 7.0mph /  11.3km/h 17.0mph /  27.4km/h 68% 0.00in /  0mm
06:44 16.2 °F /  -8.8 °C 7.5 °F /  -13.6 °C 30.24in /  1023.9hPa West 8.0mph /  12.9km/h 15.0mph /  24.1km/h 68% 0.00in /  0mm
06:49 16.1 °F /  -8.8 °C 7.4 °F /  -13.7 °C 30.24in /  1023.9hPa West 8.0mph /  12.9km/h 16.0mph /  25.7km/h 68% 0.00in /  0mm
06:54 16.0 °F /  -8.9 °C 7.0 °F /  -13.9 °C 30.24in /  1023.9hPa West 8.0mph /  12.9km/h 19.0mph /  30.6km/h 67% 0.00in /  0mm
06:59 15.8 °F /  -9 °C 7.1 °F /  -13.8 °C 30.24in /  1023.9hPa West 7.0mph /  11.3km/h 19.0mph /  30.6km/h 68% 0.00in /  0mm
07:04 15.6 °F /  -9.1 °C 6.9 °F /  -13.9 °C 30.24in /  1023.9hPa WNW 3.0mph /  4.8km/h 11.0mph /  17.7km/h 68% 0.00in /  0mm
07:09 15.5 °F /  -9.2 °C 6.8 °F /  -14 °C 30.24in /  1023.9hPa WSW 4.0mph /  6.4km/h 11.0mph /  17.7km/h 68% 0.00in /  0mm
07:14 15.5 °F /  -9.2 °C 6.8 °F /  -14 °C 30.24in /  1023.9hPa West 6.0mph /  9.7km/h 15.0mph /  24.1km/h 68% 0.00in /  0mm
07:19 15.6 °F /  -9.1 °C 6.9 °F /  -13.9 °C 30.24in /  1023.9hPa WSW 7.0mph /  11.3km/h 15.0mph /  24.1km/h 68% 0.00in /  0mm
07:24 15.5 °F /  -9.2 °C 6.8 °F /  -14 °C 30.25in /  1024.3hPa WNW 8.0mph /  12.9km/h 12.0mph /  19.3km/h 68% 0.00in /  0mm
07:29 15.5 °F /  -9.2 °C 6.8 °F /  -14 °C 30.25in /  1024.3hPa West 7.0mph /  11.3km/h 10.0mph /  16.1km/h 68% 0.00in /  0mm
07:34 15.4 °F /  -9.2 °C 6.7 °F /  -14.1 °C 30.25in /  1024.3hPa SW 12.0mph /  19.3km/h 12.0mph /  19.3km/h 68% 0.00in /  0mm
07:39 15.3 °F /  -9.3 °C 6.6 °F /  -14.1 °C 30.25in /  1024.3hPa WNW 4.0mph /  6.4km/h 12.0mph /  19.3km/h 68% 0.00in /  0mm
07:44 15.4 °F /  -9.2 °C 7.0 °F /  -13.9 °C 30.25in /  1024.3hPa West 5.0mph /  8km/h 12.0mph /  19.3km/h 69% 0.00in /  0mm
07:49 15.6 °F /  -9.1 °C 7.2 °F /  -13.8 °C 30.25in /  1024.3hPa West 6.0mph /  9.7km/h 12.0mph /  19.3km/h 69% 0.00in /  0mm
07:54 15.6 °F /  -9.1 °C 7.2 °F /  -13.8 °C 30.26in /  1024.6hPa West 6.0mph /  9.7km/h 12.0mph /  19.3km/h 69% 0.00in /  0mm
07:59 15.7 °F /  -9.1 °C 7.3 °F /  -13.7 °C 30.25in /  1024.3hPa West 6.0mph /  9.7km/h 12.0mph /  19.3km/h 69% 0.00in /  0mm
08:04 15.9 °F /  -8.9 °C 7.2 °F /  -13.8 °C 30.25in /  1024.3hPa West 6.0mph /  9.7km/h 12.0mph /  19.3km/h 68% 0.00in /  0mm
08:09 16.1 °F /  -8.8 °C 7.4 °F /  -13.7 °C 30.25in /  1024.3hPa West 5.0mph /  8km/h 11.0mph /  17.7km/h 68% 0.00in /  0mm
08:14 16.4 °F /  -8.7 °C 7.3 °F /  -13.7 °C 30.26in /  1024.6hPa West 6.0mph /  9.7km/h 10.0mph /  16.1km/h 67% 0.00in /  0mm
08:19 16.6 °F /  -8.6 °C 7.2 °F /  -13.8 °C 30.26in /  1024.6hPa SW 4.0mph /  6.4km/h 12.0mph /  19.3km/h 66% 0.00in /  0mm
08:24 16.8 °F /  -8.4 °C 7.4 °F /  -13.7 °C 30.26in /  1024.6hPa West 8.0mph /  12.9km/h 10.0mph /  16.1km/h 66% 0.00in /  0mm
08:29 17.2 °F /  -8.2 °C 7.8 °F /  -13.4 °C 30.26in /  1024.6hPa West 6.0mph /  9.7km/h 11.0mph /  17.7km/h 66% 0.00in /  0mm
08:34 17.4 °F /  -8.1 °C 7.3 °F /  -13.7 °C 30.26in /  1024.6hPa West 11.0mph /  17.7km/h 15.0mph /  24.1km/h 64% 0.00in /  0mm
08:39 17.4 °F /  -8.1 °C 7.3 °F /  -13.7 °C 30.26in /  1024.6hPa West 4.0mph /  6.4km/h 11.0mph /  17.7km/h 64% 0.00in /  0mm
08:44 17.5 °F /  -8.1 °C 7.4 °F /  -13.7 °C 30.26in /  1024.6hPa West 3.0mph /  4.8km/h 10.0mph /  16.1km/h 64% 0.00in /  0mm
08:49 17.9 °F /  -7.8 °C 7.8 °F /  -13.4 °C 30.26in /  1024.6hPa West 6.0mph /  9.7km/h 12.0mph /  19.3km/h 64% 0.00in /  0mm
08:54 18.3 °F /  -7.6 °C 8.1 °F /  -13.3 °C 30.26in /  1024.6hPa West 6.0mph /  9.7km/h 12.0mph /  19.3km/h 64% 0.00in /  0mm
08:59 18.4 °F /  -7.6 °C 7.9 °F /  -13.4 °C 30.25in /  1024.3hPa West 6.0mph /  9.7km/h 12.0mph /  19.3km/h 63% 0.00in /  0mm
09:04 18.5 °F /  -7.5 °C 8.0 °F /  -13.3 °C 30.25in /  1024.3hPa West 7.0mph /  11.3km/h 14.0mph /  22.5km/h 63% 0.00in /  0mm
09:09 18.7 °F /  -7.4 °C 8.2 °F /  -13.2 °C 30.25in /  1024.3hPa West 7.0mph /  11.3km/h 14.0mph /  22.5km/h 63% 0.00in /  0mm
09:14 18.8 °F /  -7.3 °C 7.9 °F /  -13.4 °C 30.25in /  1024.3hPa WNW 6.0mph /  9.7km/h 11.0mph /  17.7km/h 62% 0.00in /  0mm
09:19 19.0 °F /  -7.2 °C 8.1 °F /  -13.3 °C 30.25in /  1024.3hPa WSW 4.0mph /  6.4km/h 10.0mph /  16.1km/h 62% 0.00in /  0mm
09:24 18.8 °F /  -7.3 °C 7.6 °F /  -13.6 °C 30.25in /  1024.3hPa WNW 7.0mph /  11.3km/h 14.0mph /  22.5km/h 61% 0.00in /  0mm
09:29 18.7 °F /  -7.4 °C 7.5 °F /  -13.6 °C 30.25in /  1024.3hPa West 11.0mph /  17.7km/h 14.0mph /  22.5km/h 61% 0.00in /  0mm
09:34 18.6 °F /  -7.4 °C 7.4 °F /  -13.7 °C 30.26in /  1024.6hPa WNW 11.0mph /  17.7km/h 12.0mph /  19.3km/h 61% 0.00in /  0mm
09:39 18.6 °F /  -7.4 °C 7.7 °F /  -13.5 °C 30.26in /  1024.6hPa West 8.0mph /  12.9km/h 14.0mph /  22.5km/h 62% 0.00in /  0mm
09:44 18.4 °F /  -7.6 °C 7.2 °F /  -13.8 °C 30.26in /  1024.6hPa West 5.0mph /  8km/h 15.0mph /  24.1km/h 61% 0.00in /  0mm
09:49 18.9 °F /  -7.3 °C 7.7 °F /  -13.5 °C 30.26in /  1024.6hPa West 8.0mph /  12.9km/h 12.0mph /  19.3km/h 61% 0.00in /  0mm
09:54 19.5 °F /  -6.9 °C 8.2 °F /  -13.2 °C 30.26in /  1024.6hPa West 5.0mph /  8km/h 12.0mph /  19.3km/h 61% 0.00in /  0mm
09:59 19.7 °F /  -6.8 °C 8.0 °F /  -13.3 °C 30.26in /  1024.6hPa West 6.0mph /  9.7km/h 13.0mph /  20.9km/h 60% 0.00in /  0mm
10:04 19.4 °F /  -7 °C 7.4 °F /  -13.7 °C 30.26in /  1024.6hPa West 6.0mph /  9.7km/h 13.0mph /  20.9km/h 59% 0.00in /  0mm
10:09 19.0 °F /  -7.2 °C 6.6 °F /  -14.1 °C 30.26in /  1024.6hPa West 7.0mph /  11.3km/h 14.0mph /  22.5km/h 58% 0.00in /  0mm
10:14 19.1 °F /  -7.2 °C 6.7 °F /  -14.1 °C 30.26in /  1024.6hPa NW 7.0mph /  11.3km/h 14.0mph /  22.5km/h 58% 0.00in /  0mm
10:19 19.9 °F /  -6.7 °C 7.5 °F /  -13.6 °C 30.26in /  1024.6hPa West 3.0mph /  4.8km/h 16.0mph /  25.7km/h 58% 0.00in /  0mm
10:24 20.0 °F /  -6.7 °C 7.2 °F /  -13.8 °C 30.26in /  1024.6hPa West 8.0mph /  12.9km/h 16.0mph /  25.7km/h 57% 0.00in /  0mm
10:29 19.8 °F /  -6.8 °C 7.0 °F /  -13.9 °C 30.26in /  1024.6hPa WSW 7.0mph /  11.3km/h 15.0mph /  24.1km/h 57% 0.00in /  0mm
10:34 19.9 °F /  -6.7 °C 7.1 °F /  -13.8 °C 30.26in /  1024.6hPa NW 3.0mph /  4.8km/h 14.0mph /  22.5km/h 57% 0.00in /  0mm
10:39 19.7 °F /  -6.8 °C 6.5 °F /  -14.2 °C 30.26in /  1024.6hPa SW 5.0mph /  8km/h 17.0mph /  27.4km/h 56% 0.00in /  0mm
10:44 20.1 °F /  -6.6 °C 6.9 °F /  -13.9 °C 30.26in /  1024.6hPa West 6.0mph /  9.7km/h 14.0mph /  22.5km/h 56% 0.00in /  0mm
10:49 20.9 °F /  -6.2 °C 7.2 °F /  -13.8 °C 30.26in /  1024.6hPa West 7.0mph /  11.3km/h 13.0mph /  20.9km/h 55% 0.00in /  0mm
10:54 20.6 °F /  -6.3 °C 6.6 °F /  -14.1 °C 30.26in /  1024.6hPa West 7.0mph /  11.3km/h 15.0mph /  24.1km/h 54% 0.00in /  0mm
10:59 20.7 °F /  -6.3 °C 6.7 °F /  -14.1 °C 30.26in /  1024.6hPa West 7.0mph /  11.3km/h 15.0mph /  24.1km/h 54% 0.00in /  0mm
11:04 20.7 °F /  -6.3 °C 6.2 °F /  -14.3 °C 30.26in /  1024.6hPa West 7.0mph /  11.3km/h 12.0mph /  19.3km/h 53% 0.00in /  0mm
11:09 20.9 °F /  -6.2 °C 6.4 °F /  -14.2 °C 30.26in /  1024.6hPa WNW 7.0mph /  11.3km/h 17.0mph /  27.4km/h 53% 0.00in /  0mm
11:14 20.3 °F /  -6.5 °C 6.3 °F /  -14.3 °C 30.26in /  1024.6hPa West 7.0mph /  11.3km/h 17.0mph /  27.4km/h 54% 0.00in /  0mm
11:19 20.1 °F /  -6.6 °C 6.1 °F /  -14.4 °C 30.25in /  1024.3hPa WSW 8.0mph /  12.9km/h 16.0mph /  25.7km/h 54% 0.00in /  0mm
11:24 20.4 °F /  -6.4 °C 6.8 °F /  -14 °C 30.25in /  1024.3hPa WSW 7.0mph /  11.3km/h 17.0mph /  27.4km/h 55% 0.00in /  0mm
11:29 20.1 °F /  -6.6 °C 6.9 °F /  -13.9 °C 30.25in /  1024.3hPa WSW 8.0mph /  12.9km/h 17.0mph /  27.4km/h 56% 0.00in /  0mm
11:34 19.8 °F /  -6.8 °C 6.6 °F /  -14.1 °C 30.25in /  1024.3hPa West 5.0mph /  8km/h 15.0mph /  24.1km/h 56% 0.00in /  0mm
11:39 20.3 °F /  -6.5 °C 7.1 °F /  -13.8 °C 30.24in /  1023.9hPa SW 10.0mph /  16.1km/h 15.0mph /  24.1km/h 56% 0.00in /  0mm
11:44 20.7 °F /  -6.3 °C 7.1 °F /  -13.8 °C 30.24in /  1023.9hPa West 6.0mph /  9.7km/h 11.0mph /  17.7km/h 55% 0.00in /  0mm
11:49 20.6 °F /  -6.3 °C 6.6 °F /  -14.1 °C 30.24in /  1023.9hPa WSW 8.0mph /  12.9km/h 12.0mph /  19.3km/h 54% 0.00in /  0mm
11:54 21.1 °F /  -6.1 °C 7.8 °F /  -13.4 °C 30.23in /  1023.6hPa SSW 10.0mph /  16.1km/h 15.0mph /  24.1km/h 56% 0.00in /  0mm
11:59 20.9 °F /  -6.2 °C 7.6 °F /  -13.6 °C 30.23in /  1023.6hPa WSW 10.0mph /  16.1km/h 13.0mph /  20.9km/h 56% 0.00in /  0mm
12:04 20.6 °F /  -6.3 °C 7.0 °F /  -13.9 °C 30.23in /  1023.6hPa WSW 8.0mph /  12.9km/h 16.0mph /  25.7km/h 55% 0.00in /  0mm
12:09 20.9 °F /  -6.2 °C 7.6 °F /  -13.6 °C 30.23in /  1023.6hPa WSW 7.0mph /  11.3km/h 16.0mph /  25.7km/h 56% 0.00in /  0mm
12:14 21.2 °F /  -6 °C 7.5 °F /  -13.6 °C 30.23in /  1023.6hPa WSW 6.0mph /  9.7km/h 14.0mph /  22.5km/h 55% 0.00in /  0mm
12:19 21.0 °F /  -6.1 °C 6.9 °F /  -13.9 °C 30.22in /  1023.2hPa WSW 7.0mph /  11.3km/h 17.0mph /  27.4km/h 54% 0.00in /  0mm
12:24 21.1 °F /  -6.1 °C 7.0 °F /  -13.9 °C 30.22in /  1023.2hPa WSW 8.0mph /  12.9km/h 17.0mph /  27.4km/h 54% 0.00in /  0mm
12:29 21.5 °F /  -5.8 °C 7.8 °F /  -13.4 °C 30.22in /  1023.2hPa WSW 11.0mph /  17.7km/h 12.0mph /  19.3km/h 55% 0.00in /  0mm
12:34 21.2 °F /  -6 °C 7.9 °F /  -13.4 °C 30.22in /  1023.2hPa NW 8.0mph /  12.9km/h 17.0mph /  27.4km/h 56% 0.00in /  0mm
12:39 21.2 °F /  -6 °C 7.9 °F /  -13.4 °C 30.22in /  1023.2hPa WSW 8.0mph /  12.9km/h 17.0mph /  27.4km/h 56% 0.00in /  0mm
12:44 21.1 °F /  -6.1 °C 7.8 °F /  -13.4 °C 30.22in /  1023.2hPa West 3.0mph /  4.8km/h 19.0mph /  30.6km/h 56% 0.00in /  0mm
12:49 20.8 °F /  -6.2 °C 7.6 °F /  -13.6 °C 30.22in /  1023.2hPa WSW 10.0mph /  16.1km/h 19.0mph /  30.6km/h 56% 0.00in /  0mm
12:54 20.5 °F /  -6.4 °C 8.8 °F /  -12.9 °C 30.22in /  1023.2hPa West 11.0mph /  17.7km/h 17.0mph /  27.4km/h 60% 0.00in /  0mm
12:59 20.2 °F /  -6.6 °C 8.5 °F /  -13.1 °C 30.22in /  1023.2hPa West 4.0mph /  6.4km/h 18.0mph /  29km/h 60% 0.00in /  0mm
13:04 20.0 °F /  -6.7 °C 8.3 °F /  -13.2 °C 30.22in /  1023.2hPa WSW 7.0mph /  11.3km/h 14.0mph /  22.5km/h 60% 0.00in /  0mm
13:09 19.9 °F /  -6.7 °C 7.9 °F /  -13.4 °C 30.22in /  1023.2hPa West 8.0mph /  12.9km/h 16.0mph /  25.7km/h 59% 0.00in /  0mm
13:14 19.8 °F /  -6.8 °C 7.4 °F /  -13.7 °C 30.22in /  1023.2hPa West 8.0mph /  12.9km/h 16.0mph /  25.7km/h 58% 0.00in /  0mm
13:19 20.1 °F /  -6.6 °C 8.4 °F /  -13.1 °C 30.22in /  1023.2hPa West 7.0mph /  11.3km/h 16.0mph /  25.7km/h 60% 0.00in /  0mm
13:24 20.3 °F /  -6.5 °C 8.2 °F /  -13.2 °C 30.22in /  1023.2hPa West 6.0mph /  9.7km/h 16.0mph /  25.7km/h 59% 0.00in /  0mm
13:29 20.2 °F /  -6.6 °C 7.8 °F /  -13.4 °C 30.22in /  1023.2hPa West 8.0mph /  12.9km/h 15.0mph /  24.1km/h 58% 0.00in /  0mm
13:34 20.0 °F /  -6.7 °C 8.0 °F /  -13.3 °C 30.21in /  1022.9hPa WSW 6.0mph /  9.7km/h 15.0mph /  24.1km/h 59% 0.00in /  0mm
13:39 20.2 °F /  -6.6 °C 8.5 °F /  -13.1 °C 30.22in /  1023.2hPa WSW 7.0mph /  11.3km/h 15.0mph /  24.1km/h 60% 0.00in /  0mm
13:44 20.1 °F /  -6.6 °C 8.4 °F /  -13.1 °C 30.22in /  1023.2hPa West 7.0mph /  11.3km/h 18.0mph /  29km/h 60% 0.00in /  0mm
13:49 20.0 °F /  -6.7 °C 8.3 °F /  -13.2 °C 30.22in /  1023.2hPa West 7.0mph /  11.3km/h 14.0mph /  22.5km/h 60% 0.00in /  0mm
13:54 20.2 °F /  -6.6 °C 8.1 °F /  -13.3 °C 30.22in /  1023.2hPa WSW 6.0mph /  9.7km/h 15.0mph /  24.1km/h 59% 0.00in /  0mm
13:59 20.3 °F /  -6.5 °C 8.2 °F /  -13.2 °C 30.22in /  1023.2hPa West 8.0mph /  12.9km/h 13.0mph /  20.9km/h 59% 0.00in /  0mm
14:04 20.1 °F /  -6.6 °C 8.1 °F /  -13.3 °C 30.21in /  1022.9hPa NW 7.0mph /  11.3km/h 15.0mph /  24.1km/h 59% 0.00in /  0mm
14:09 19.9 °F /  -6.7 °C 7.9 °F /  -13.4 °C 30.22in /  1023.2hPa WNW 5.0mph /  8km/h 15.0mph /  24.1km/h 59% 0.00in /  0mm
14:14 19.8 °F /  -6.8 °C 7.8 °F /  -13.4 °C 30.22in /  1023.2hPa West 7.0mph /  11.3km/h 15.0mph /  24.1km/h 59% 0.00in /  0mm
14:19 20.2 °F /  -6.6 °C 7.4 °F /  -13.7 °C 30.21in /  1022.9hPa West 7.0mph /  11.3km/h 15.0mph /  24.1km/h 57% 0.00in /  0mm
14:24 20.0 °F /  -6.7 °C 6.4 °F /  -14.2 °C 30.22in /  1023.2hPa West 7.0mph /  11.3km/h 14.0mph /  22.5km/h 55% 0.00in /  0mm
14:29 19.6 °F /  -6.9 °C 6.4 °F /  -14.2 °C 30.22in /  1023.2hPa West 7.0mph /  11.3km/h 14.0mph /  22.5km/h 56% 0.00in /  0mm
14:34 20.0 °F /  -6.7 °C 6.8 °F /  -14 °C 30.22in /  1023.2hPa West 8.0mph /  12.9km/h 14.0mph /  22.5km/h 56% 0.00in /  0mm
14:39 20.7 °F /  -6.3 °C 7.5 °F /  -13.6 °C 30.22in /  1023.2hPa WNW 8.0mph /  12.9km/h 10.0mph /  16.1km/h 56% 0.00in /  0mm
14:44 21.5 °F /  -5.8 °C 7.8 °F /  -13.4 °C 30.22in /  1023.2hPa West 7.0mph /  11.3km/h 14.0mph /  22.5km/h 55% 0.00in /  0mm
14:49 21.5 °F /  -5.8 °C 7.8 °F /  -13.4 °C 30.22in /  1023.2hPa West 7.0mph /  11.3km/h 15.0mph /  24.1km/h 55% 0.00in /  0mm
14:54 21.6 °F /  -5.8 °C 7.5 °F /  -13.6 °C 30.22in /  1023.2hPa WNW 6.0mph /  9.7km/h 17.0mph /  27.4km/h 54% 0.00in /  0mm
14:59 21.5 °F /  -5.8 °C 7.8 °F /  -13.4 °C 30.22in /  1023.2hPa West 8.0mph /  12.9km/h 16.0mph /  25.7km/h 55% 0.00in /  0mm
15:04 21.7 °F /  -5.7 °C 8.0 °F /  -13.3 °C 30.22in /  1023.2hPa WNW 7.0mph /  11.3km/h 18.0mph /  29km/h 55% 0.00in /  0mm
15:09 21.9 °F /  -5.6 °C 8.2 °F /  -13.2 °C 30.22in /  1023.2hPa WNW 6.0mph /  9.7km/h 16.0mph /  25.7km/h 55% 0.00in /  0mm
15:14 21.5 °F /  -5.8 °C 7.4 °F /  -13.7 °C 30.22in /  1023.2hPa West 9.0mph /  14.5km/h 15.0mph /  24.1km/h 54% 0.00in /  0mm
15:19 20.8 °F /  -6.2 °C 7.2 °F /  -13.8 °C 30.23in /  1023.6hPa West 8.0mph /  12.9km/h 15.0mph /  24.1km/h 55% 0.00in /  0mm
15:24 21.1 °F /  -6.1 °C 8.6 °F /  -13 °C 30.23in /  1023.6hPa West 7.0mph /  11.3km/h 14.0mph /  22.5km/h 58% 0.00in /  0mm
15:29 20.9 °F /  -6.2 °C 8.8 °F /  -12.9 °C 30.23in /  1023.6hPa WSW 6.0mph /  9.7km/h 13.0mph /  20.9km/h 59% 0.00in /  0mm
15:34 20.9 °F /  -6.2 °C 8.4 °F /  -13.1 °C 30.23in /  1023.6hPa WSW 7.0mph /  11.3km/h 14.0mph /  22.5km/h 58% 0.00in /  0mm
15:39 20.7 °F /  -6.3 °C 7.1 °F /  -13.8 °C 30.23in /  1023.6hPa West 6.0mph /  9.7km/h 16.0mph /  25.7km/h 55% 0.00in /  0mm
15:44 21.1 °F /  -6.1 °C 7.8 °F /  -13.4 °C 30.23in /  1023.6hPa WSW 5.0mph /  8km/h 12.0mph /  19.3km/h 56% 0.00in /  0mm
15:49 21.3 °F /  -5.9 °C 8.4 °F /  -13.1 °C 30.23in /  1023.6hPa West 7.0mph /  11.3km/h 15.0mph /  24.1km/h 57% 0.00in /  0mm
15:54 21.2 °F /  -6 °C 8.7 °F /  -12.9 °C 30.24in /  1023.9hPa WSW 7.0mph /  11.3km/h 15.0mph /  24.1km/h 58% 0.00in /  0mm
15:59 20.6 °F /  -6.3 °C 7.8 °F /  -13.4 °C 30.23in /  1023.6hPa WSW 8.0mph /  12.9km/h 18.0mph /  29km/h 57% 0.00in /  0mm
16:04 20.4 °F /  -6.4 °C 8.0 °F /  -13.3 °C 30.24in /  1023.9hPa WNW 7.0mph /  11.3km/h 17.0mph /  27.4km/h 58% 0.00in /  0mm
16:09 20.1 °F /  -6.6 °C 8.4 °F /  -13.1 °C 30.24in /  1023.9hPa SW 4.0mph /  6.4km/h 15.0mph /  24.1km/h 60% 0.00in /  0mm
16:14 20.0 °F /  -6.7 °C 8.0 °F /  -13.3 °C 30.24in /  1023.9hPa WSW 10.0mph /  16.1km/h 15.0mph /  24.1km/h 59% 0.00in /  0mm
16:19 20.2 °F /  -6.6 °C 8.5 °F /  -13.1 °C 30.24in /  1023.9hPa WSW 5.0mph /  8km/h 13.0mph /  20.9km/h 60% 0.00in /  0mm
16:24 19.5 °F /  -6.9 °C 8.6 °F /  -13 °C 30.24in /  1023.9hPa West 7.0mph /  11.3km/h 13.0mph /  20.9km/h 62% 0.00in /  0mm
16:29 19.1 °F /  -7.2 °C 8.9 °F /  -12.8 °C 30.24in /  1023.9hPa West 6.0mph /  9.7km/h 13.0mph /  20.9km/h 64% 0.00in /  0mm
16:34 19.0 °F /  -7.2 °C 9.2 °F /  -12.7 °C 30.24in /  1023.9hPa West 6.0mph /  9.7km/h 13.0mph /  20.9km/h 65% 0.00in /  0mm
16:39 19.0 °F /  -7.2 °C 9.2 °F /  -12.7 °C 30.24in /  1023.9hPa West 7.0mph /  11.3km/h 13.0mph /  20.9km/h 65% 0.00in /  0mm
16:44 18.9 °F /  -7.3 °C 9.1 °F /  -12.7 °C 30.24in /  1023.9hPa WSW 7.0mph /  11.3km/h 14.0mph /  22.5km/h 65% 0.00in /  0mm
16:49 18.9 °F /  -7.3 °C 9.1 °F /  -12.7 °C 30.25in /  1024.3hPa WSW 7.0mph /  11.3km/h 16.0mph /  25.7km/h 65% 0.00in /  0mm
16:54 18.9 °F /  -7.3 °C 8.7 °F /  -12.9 °C 30.25in /  1024.3hPa WSW 8.0mph /  12.9km/h 18.0mph /  29km/h 64% 0.00in /  0mm
16:59 18.9 °F /  -7.3 °C 8.7 °F /  -12.9 °C 30.25in /  1024.3hPa WNW 4.0mph /  6.4km/h 14.0mph /  22.5km/h 64% 0.00in /  0mm
17:04 18.9 °F /  -7.3 °C 8.7 °F /  -12.9 °C 30.25in /  1024.3hPa WNW 9.0mph /  14.5km/h 14.0mph /  22.5km/h 64% 0.00in /  0mm
17:09 18.5 °F /  -7.5 °C 8.3 °F /  -13.2 °C 30.25in /  1024.3hPa WSW 12.0mph /  19.3km/h 14.0mph /  22.5km/h 64% 0.00in /  0mm
17:14 18.3 °F /  -7.6 °C 8.1 °F /  -13.3 °C 30.25in /  1024.3hPa West 13.0mph /  20.9km/h 17.0mph /  27.4km/h 64% 0.00in /  0mm
17:19 18.1 °F /  -7.7 °C 8.0 °F /  -13.3 °C 30.26in /  1024.6hPa WSW 11.0mph /  17.7km/h 15.0mph /  24.1km/h 64% 0.00in /  0mm
17:24 18.0 °F /  -7.8 °C 8.2 °F /  -13.2 °C 30.26in /  1024.6hPa West 6.0mph /  9.7km/h 12.0mph /  19.3km/h 65% 0.00in /  0mm
17:29 18.0 °F /  -7.8 °C 7.9 °F /  -13.4 °C 30.26in /  1024.6hPa West 6.0mph /  9.7km/h 14.0mph /  22.5km/h 64% 0.00in /  0mm
17:34 17.9 °F /  -7.8 °C 7.8 °F /  -13.4 °C 30.26in /  1024.6hPa West 7.0mph /  11.3km/h 14.0mph /  22.5km/h 64% 0.00in /  0mm
17:39 17.7 °F /  -7.9 °C 7.9 °F /  -13.4 °C 30.26in /  1024.6hPa West 6.0mph /  9.7km/h 14.0mph /  22.5km/h 65% 0.00in /  0mm
17:44 17.7 °F /  -7.9 °C 7.9 °F /  -13.4 °C 30.27in /  1024.9hPa West 6.0mph /  9.7km/h 14.0mph /  22.5km/h 65% 0.00in /  0mm
17:49 17.6 °F /  -8 °C 7.8 °F /  -13.4 °C 30.27in /  1024.9hPa West 7.0mph /  11.3km/h 14.0mph /  22.5km/h 65% 0.00in /  0mm
17:54 17.5 °F /  -8.1 °C 7.7 °F /  -13.5 °C 30.27in /  1024.9hPa West 7.0mph /  11.3km/h 14.0mph /  22.5km/h 65% 0.00in /  0mm
17:59 17.5 °F /  -8.1 °C 7.7 °F /  -13.5 °C 30.27in /  1024.9hPa West 4.0mph /  6.4km/h 14.0mph /  22.5km/h 65% 0.00in /  0mm
18:04 17.4 °F /  -8.1 °C 7.6 °F /  -13.6 °C 30.27in /  1024.9hPa West 7.0mph /  11.3km/h 15.0mph /  24.1km/h 65% 0.00in /  0mm
18:09 17.3 °F /  -8.2 °C 7.5 °F /  -13.6 °C 30.28in /  1025.3hPa WNW 4.0mph /  6.4km/h 15.0mph /  24.1km/h 65% 0.00in /  0mm
18:14 17.3 °F /  -8.2 °C 7.5 °F /  -13.6 °C 30.28in /  1025.3hPa West 4.0mph /  6.4km/h 18.0mph /  29km/h 65% 0.00in /  0mm
18:19 17.3 °F /  -8.2 °C 7.2 °F /  -13.8 °C 30.28in /  1025.3hPa West 10.0mph /  16.1km/h 16.0mph /  25.7km/h 64% 0.00in /  0mm
18:24 17.2 °F /  -8.2 °C 7.1 °F /  -13.8 °C 30.28in /  1025.3hPa SW 8.0mph /  12.9km/h 14.0mph /  22.5km/h 64% 0.00in /  0mm
18:29 17.2 °F /  -8.2 °C 7.1 °F /  -13.8 °C 30.29in /  1025.6hPa West 12.0mph /  19.3km/h 16.0mph /  25.7km/h 64% 0.00in /  0mm
18:34 17.1 °F /  -8.3 °C 7.0 °F /  -13.9 °C 30.29in /  1025.6hPa West 9.0mph /  14.5km/h 19.0mph /  30.6km/h 64% 0.00in /  0mm
18:39 17.0 °F /  -8.3 °C 6.9 °F /  -13.9 °C 30.29in /  1025.6hPa WSW 7.0mph /  11.3km/h 19.0mph /  30.6km/h 64% 0.00in /  0mm
18:44 16.8 °F /  -8.4 °C 6.7 °F /  -14.1 °C 30.29in /  1025.6hPa WSW 7.0mph /  11.3km/h 14.0mph /  22.5km/h 64% 0.00in /  0mm
18:49 16.8 °F /  -8.4 °C 6.7 °F /  -14.1 °C 30.29in /  1025.6hPa WSW 5.0mph /  8km/h 18.0mph /  29km/h 64% 0.00in /  0mm
18:54 16.7 °F /  -8.5 °C 6.6 °F /  -14.1 °C 30.30in /  1026hPa West 8.0mph /  12.9km/h 18.0mph /  29km/h 64% 0.00in /  0mm
18:59 16.6 °F /  -8.6 °C 6.9 °F /  -13.9 °C 30.30in /  1026hPa West 6.0mph /  9.7km/h 12.0mph /  19.3km/h 65% 0.00in /  0mm
19:04 16.5 °F /  -8.6 °C 6.8 °F /  -14 °C 30.30in /  1026hPa West 17.0mph /  27.4km/h 17.0mph /  27.4km/h 65% 0.00in /  0mm
19:09 16.4 °F /  -8.7 °C 7.0 °F /  -13.9 °C 30.30in /  1026hPa West 8.0mph /  12.9km/h 17.0mph /  27.4km/h 66% 0.00in /  0mm
19:14 16.4 °F /  -8.7 °C 7.0 °F /  -13.9 °C 30.30in /  1026hPa West 8.0mph /  12.9km/h 17.0mph /  27.4km/h 66% 0.00in /  0mm
19:19 16.1 °F /  -8.8 °C 7.1 °F /  -13.8 °C 30.31in /  1026.3hPa West 7.0mph /  11.3km/h 15.0mph /  24.1km/h 67% 0.00in /  0mm
19:24 16.1 °F /  -8.8 °C 7.1 °F /  -13.8 °C 30.31in /  1026.3hPa West 11.0mph /  17.7km/h 15.0mph /  24.1km/h 67% 0.00in /  0mm
19:29 16.0 °F /  -8.9 °C 7.3 °F /  -13.7 °C 30.31in /  1026.3hPa WNW 4.0mph /  6.4km/h 13.0mph /  20.9km/h 68% 0.00in /  0mm
19:34 15.9 °F /  -8.9 °C 7.2 °F /  -13.8 °C 30.32in /  1026.6hPa West 8.0mph /  12.9km/h 9.0mph /  14.5km/h 68% 0.00in /  0mm
19:39 15.9 °F /  -8.9 °C 7.2 °F /  -13.8 °C 30.32in /  1026.6hPa West 5.0mph /  8km/h 14.0mph /  22.5km/h 68% 0.00in /  0mm
19:44 15.8 °F /  -9 °C 7.1 °F /  -13.8 °C 30.32in /  1026.6hPa West 7.0mph /  11.3km/h 17.0mph /  27.4km/h 68% 0.00in /  0mm
19:49 15.8 °F /  -9 °C 7.1 °F /  -13.8 °C 30.32in /  1026.6hPa West 7.0mph /  11.3km/h 17.0mph /  27.4km/h 68% 0.00in /  0mm
19:54 15.8 °F /  -9 °C 7.4 °F /  -13.7 °C 30.32in /  1026.6hPa West 6.0mph /  9.7km/h 16.0mph /  25.7km/h 69% 0.00in /  0mm
19:59 15.7 °F /  -9.1 °C 7.3 °F /  -13.7 °C 30.32in /  1026.6hPa West 6.0mph /  9.7km/h 11.0mph /  17.7km/h 69% 0.00in /  0mm
20:04 15.7 °F /  -9.1 °C 7.3 °F /  -13.7 °C 30.32in /  1026.6hPa WSW 3.0mph /  4.8km/h 10.0mph /  16.1km/h 69% 0.00in /  0mm
20:09 15.7 °F /  -9.1 °C 7.3 °F /  -13.7 °C 30.32in /  1026.6hPa WNW 7.0mph /  11.3km/h 14.0mph /  22.5km/h 69% 0.00in /  0mm
20:14 15.6 °F /  -9.1 °C 7.2 °F /  -13.8 °C 30.32in /  1026.6hPa West 6.0mph /  9.7km/h 14.0mph /  22.5km/h 69% 0.00in /  0mm
20:19 15.7 °F /  -9.1 °C 7.3 °F /  -13.7 °C 30.32in /  1026.6hPa West 6.0mph /  9.7km/h 16.0mph /  25.7km/h 69% 0.00in /  0mm
20:24 15.8 °F /  -9 °C 7.7 °F /  -13.5 °C 30.32in /  1026.6hPa West 8.0mph /  12.9km/h 17.0mph /  27.4km/h 70% 0.00in /  0mm
20:29 15.8 °F /  -9 °C 7.7 °F /  -13.5 °C 30.32in /  1026.6hPa West 8.0mph /  12.9km/h 17.0mph /  27.4km/h 70% 0.00in /  0mm
20:34 15.9 °F /  -8.9 °C 7.8 °F /  -13.4 °C 30.32in /  1026.6hPa West 13.0mph /  20.9km/h 13.0mph /  20.9km/h 70% 0.00in /  0mm
20:39 15.9 °F /  -8.9 °C 7.5 °F /  -13.6 °C 30.32in /  1026.6hPa West 9.0mph /  14.5km/h 17.0mph /  27.4km/h 69% 0.00in /  0mm
20:44 15.8 °F /  -9 °C 7.4 °F /  -13.7 °C 30.32in /  1026.6hPa WSW 7.0mph /  11.3km/h 12.0mph /  19.3km/h 69% 0.00in /  0mm
20:49 15.9 °F /  -8.9 °C 7.5 °F /  -13.6 °C 30.32in /  1026.6hPa West 6.0mph /  9.7km/h 12.0mph /  19.3km/h 69% 0.00in /  0mm
20:54 16.1 °F /  -8.8 °C 7.7 °F /  -13.5 °C 30.33in /  1027hPa West 10.0mph /  16.1km/h 15.0mph /  24.1km/h 69% 0.00in /  0mm
20:59 16.1 °F /  -8.8 °C 7.7 °F /  -13.5 °C 30.33in /  1027hPa WNW 5.0mph /  8km/h 14.0mph /  22.5km/h 69% 0.00in /  0mm
21:04 16.2 °F /  -8.8 °C 7.8 °F /  -13.4 °C 30.33in /  1027hPa WNW 9.0mph /  14.5km/h 14.0mph /  22.5km/h 69% 0.00in /  0mm
21:09 16.2 °F /  -8.8 °C 7.8 °F /  -13.4 °C 30.33in /  1027hPa WNW 5.0mph /  8km/h 15.0mph /  24.1km/h 69% 0.00in /  0mm
21:14 16.3 °F /  -8.7 °C 7.9 °F /  -13.4 °C 30.33in /  1027hPa WSW 4.0mph /  6.4km/h 12.0mph /  19.3km/h 69% 0.00in /  0mm
21:19 16.3 °F /  -8.7 °C 7.9 °F /  -13.4 °C 30.33in /  1027hPa West 6.0mph /  9.7km/h 16.0mph /  25.7km/h 69% 0.00in /  0mm
21:24 16.4 °F /  -8.7 °C 7.7 °F /  -13.5 °C 30.33in /  1027hPa West 7.0mph /  11.3km/h 17.0mph /  27.4km/h 68% 0.00in /  0mm
21:29 16.3 °F /  -8.7 °C 7.6 °F /  -13.6 °C 30.33in /  1027hPa West 8.0mph /  12.9km/h 17.0mph /  27.4km/h 68% 0.00in /  0mm
21:34 16.3 °F /  -8.7 °C 7.6 °F /  -13.6 °C 30.33in /  1027hPa West 7.0mph /  11.3km/h 14.0mph /  22.5km/h 68% 0.00in /  0mm
21:39 16.4 °F /  -8.7 °C 7.7 °F /  -13.5 °C 30.33in /  1027hPa West 7.0mph /  11.3km/h 15.0mph /  24.1km/h 68% 0.00in /  0mm
21:44 16.4 °F /  -8.7 °C 7.7 °F /  -13.5 °C 30.33in /  1027hPa West 6.0mph /  9.7km/h 12.0mph /  19.3km/h 68% 0.00in /  0mm
21:49 16.4 °F /  -8.7 °C 7.7 °F /  -13.5 °C 30.33in /  1027hPa West 9.0mph /  14.5km/h 11.0mph /  17.7km/h 68% 0.00in /  0mm
21:54 16.4 °F /  -8.7 °C 7.3 °F /  -13.7 °C 30.33in /  1027hPa West 7.0mph /  11.3km/h 12.0mph /  19.3km/h 67% 0.00in /  0mm
21:59 16.5 °F /  -8.6 °C 7.4 °F /  -13.7 °C 30.33in /  1027hPa SW 3.0mph /  4.8km/h 13.0mph /  20.9km/h 67% 0.00in /  0mm
22:04 16.7 °F /  -8.5 °C 7.3 °F /  -13.7 °C 30.33in /  1027hPa West 6.0mph /  9.7km/h 10.0mph /  16.1km/h 66% 0.00in /  0mm
22:09 16.7 °F /  -8.5 °C 7.3 °F /  -13.7 °C 30.33in /  1027hPa WSW 7.0mph /  11.3km/h 13.0mph /  20.9km/h 66% 0.00in /  0mm
22:14 17.0 °F /  -8.3 °C 7.6 °F /  -13.6 °C 30.33in /  1027hPa NW 5.0mph /  8km/h 15.0mph /  24.1km/h 66% 0.00in /  0mm
22:19 17.1 °F /  -8.3 °C 7.7 °F /  -13.5 °C 30.34in /  1027.3hPa WNW 6.0mph /  9.7km/h 17.0mph /  27.4km/h 66% 0.00in /  0mm
22:24 17.2 °F /  -8.2 °C 7.8 °F /  -13.4 °C 30.34in /  1027.3hPa West 6.0mph /  9.7km/h 17.0mph /  27.4km/h 66% 0.00in /  0mm
22:29 17.3 °F /  -8.2 °C 7.5 °F /  -13.6 °C 30.34in /  1027.3hPa West 7.0mph /  11.3km/h 15.0mph /  24.1km/h 65% 0.00in /  0mm
22:34 17.5 °F /  -8.1 °C 7.7 °F /  -13.5 °C 30.34in /  1027.3hPa West 7.0mph /  11.3km/h 15.0mph /  24.1km/h 65% 0.00in /  0mm
22:39 17.5 °F /  -8.1 °C 7.7 °F /  -13.5 °C 30.34in /  1027.3hPa West 6.0mph /  9.7km/h 12.0mph /  19.3km/h 65% 0.00in /  0mm
22:44 17.7 °F /  -7.9 °C 7.9 °F /  -13.4 °C 30.34in /  1027.3hPa West 6.0mph /  9.7km/h 12.0mph /  19.3km/h 65% 0.00in /  0mm
22:49 17.8 °F /  -7.9 °C 8.0 °F /  -13.3 °C 30.34in /  1027.3hPa West 10.0mph /  16.1km/h 14.0mph /  22.5km/h 65% 0.00in /  0mm
22:54 17.9 °F /  -7.8 °C 7.8 °F /  -13.4 °C 30.34in /  1027.3hPa WNW 7.0mph /  11.3km/h 19.0mph /  30.6km/h 64% 0.00in /  0mm
22:59 17.8 °F /  -7.9 °C 8.0 °F /  -13.3 °C 30.34in /  1027.3hPa West 7.0mph /  11.3km/h 19.0mph /  30.6km/h 65% 0.00in /  0mm
23:04 17.7 °F /  -7.9 °C 7.9 °F /  -13.4 °C 30.34in /  1027.3hPa WNW 6.0mph /  9.7km/h 12.0mph /  19.3km/h 65% 0.00in /  0mm
23:09 17.7 °F /  -7.9 °C 7.9 °F /  -13.4 °C 30.34in /  1027.3hPa West 6.0mph /  9.7km/h 14.0mph /  22.5km/h 65% 0.00in /  0mm
23:14 17.5 °F /  -8.1 °C 7.7 °F /  -13.5 °C 30.35in /  1027.7hPa West 10.0mph /  16.1km/h 16.0mph /  25.7km/h 65% 0.00in /  0mm
23:19 17.6 °F /  -8 °C 7.8 °F /  -13.4 °C 30.35in /  1027.7hPa WSW 8.0mph /  12.9km/h 12.0mph /  19.3km/h 65% 0.00in /  0mm
23:24 17.8 °F /  -7.9 °C 8.0 °F /  -13.3 °C 30.35in /  1027.7hPa WSW 5.0mph /  8km/h 12.0mph /  19.3km/h 65% 0.00in /  0mm
23:29 17.9 °F /  -7.8 °C 8.1 °F /  -13.3 °C 30.35in /  1027.7hPa West 7.0mph /  11.3km/h 16.0mph /  25.7km/h 65% 0.00in /  0mm
23:34 18.0 °F /  -7.8 °C 8.2 °F /  -13.2 °C 30.35in /  1027.7hPa West 8.0mph /  12.9km/h 16.0mph /  25.7km/h 65% 0.00in /  0mm
23:39 18.0 °F /  -7.8 °C 8.2 °F /  -13.2 °C 30.35in /  1027.7hPa West 7.0mph /  11.3km/h 16.0mph /  25.7km/h 65% 0.00in /  0mm
23:44 18.0 °F /  -7.8 °C 8.2 °F /  -13.2 °C 30.35in /  1027.7hPa West 6.0mph /  9.7km/h 14.0mph /  22.5km/h 65% 0.00in /  0mm
23:49 17.9 °F /  -7.8 °C 8.5 °F /  -13.1 °C 30.35in /  1027.7hPa West 6.0mph /  9.7km/h 12.0mph /  19.3km/h 66% 0.00in /  0mm
23:54 18.0 °F /  -7.8 °C 8.5 °F /  -13.1 °C 30.35in /  1027.7hPa SW 6.0mph /  9.7km/h 19.0mph /  30.6km/h 66% 0.00in /  0mm
23:59 18.3 °F /  -7.6 °C 8.8 °F /  -12.9 °C 30.35in /  1027.7hPa West 4.0mph /  6.4km/h 14.0mph /  22.5km/h 66% 0.00in /  0mm
Buffalo, New York, USA
Compliments of Weather Underground - 2.5 mb